Etusivu
METAR-TAF:

METAR-TAF

Lentoasemat :

Madera Municipal Airport

Madera, Kalifornia, Yhdysvallat

Leveyspiiri: 36-59-12N, Pituuspiiri: 120-06-39W, korkeus merenpinnasta: 77 m

Tämänhetkinen sää

Tämä raportti tehtiin 30 minuuttia sitten, kello 00.53 UTC
Tuuli 8 kn lännestä/luoteesta puuskistuen 25 kn:hen
Lämpötila 28°C
Kosteus 19%
Ilmanpaine 1013 hPa
Näkyvyys: 16.1 km
selkeää

METAR: KMAE 090053Z AUTO 29008G25KT 10SM CLR 28/02 A2992 RMK AO2 SLP131 T02830022

Aika: 18:23 (01:23 UTC)


TAF: puuttuu

Säähavainnot ja -ennusteet yli 4000 lentoasemalta (METAR- ja TAF-raportit).

Käytössä olevat sääasemat on merkitty karttaan keltaisilla ja punaisilla pisteillä.

Aseta hiiri pisteen päälle nähdäksesi sääaseman nimen.

Klikkaa sitten nähdäksesi säähavainnot ja -ennusteet.

Kartan vaihtaminen: klikkaa mustalla rastilla varustettuja vihreitä pisteitä, niin voit zoomata sisään; viivalla varustettua vihreää pistettä, niin voit zoomata ulos tai vihreitä nuolia, niin pääset viereisille kartoille.


METAR-TAF: